Time;durP1;ratioP1;P1;durP2;ratioP2;P2;SDS_P1;SDS_P2;PMS_P1;PMS_P2;Temp;Humidity;BMP_temperature;BMP_pressure;BME280_temperature;BME280_humidity;BME280_pressure;Samples;Min_cycle;Max_cycle;Signal;HPM_P1;HPM_P2
2021/03/12 05:26:30;;;;;;;17.67;9.20;;;;;;;3.05;80.76;97771.69;4418075;79;22741;-87
2021/03/12 05:32:32;;;;;;;13.48;7.97;;;;;;;2.91;80.71;97782.96;4333767;80;21192;-88
2021/03/12 05:38:35;;;;;;;15.32;7.55;;;;;;;3.01;80.83;97793.23;4333322;80;21151;-89
2021/03/12 05:44:38;;;;;;;13.48;7.08;;;;;;;3.12;80.86;97813.16;4283383;80;37040;-86
2021/03/12 05:50:40;;;;;;;15.65;7.72;;;;;;;3.35;81.87;97825.44;4201835;82;21184;-86
2021/03/12 05:56:43;;;;;;;14.70;6.87;;;;;;;3.73;82.31;97819.99;4219102;82;21207;-86
2021/03/12 06:02:46;;;;;;;15.13;7.25;;;;;;;4.01;82.56;97812.38;4199062;84;22475;-85
2021/03/12 06:08:49;;;;;;;13.03;6.90;;;;;;;4.20;81.97;97831.86;4195151;82;21176;-87
2021/03/12 06:14:58;;;;;;;16.60;7.55;;;;;;;4.47;81.65;97828.07;4195542;82;21172;-87
2021/03/12 06:21:02;;;;;;;16.80;7.47;;;;;;;4.69;81.68;97855.73;4199270;83;21909;-86
2021/03/12 06:27:05;;;;;;;13.48;7.03;;;;;;;4.88;81.25;97878.69;4209482;82;22518;-87
2021/03/12 06:33:10;;;;;;;9.85;6.15;;;;;;;5.10;81.46;97882.50;4202233;84;21190;-87
2021/03/12 06:39:34;;;;;;;13.50;6.20;;;;;;;5.42;82.15;97901.39;4578109;75;22861;-88
2021/03/12 06:45:57;;;;;;;11.20;6.28;;;;;;;5.76;81.27;97908.42;4481323;78;21329;-87
2021/03/12 06:52:03;;;;;;;;;;;;;;;6.05;80.85;97912.49;4495164;78;21643;-87
2021/03/12 06:58:10;;;;;;;10.48;5.97;;;;;;;6.49;80.17;97922.08;4456038;78;20658;-87
2021/03/12 07:04:45;;;;;;;9.23;5.50;;;;;;;6.65;79.15;97931.36;4459221;77;38893;-87
2021/03/12 07:11:20;;;;;;;9.98;5.35;;;;;;;6.89;77.78;97943.05;4525444;77;22643;-87
2021/03/12 07:17:24;;;;;;;16.45;7.58;;;;;;;6.94;77.26;97959.05;4476750;78;21141;-87
2021/03/12 07:23:29;;;;;;;15.98;6.08;;;;;;;6.97;77.69;97964.49;4476103;78;21396;-85
2021/03/12 07:29:33;;;;;;;11.90;6.80;;;;;;;7.08;77.49;97962.64;4479433;78;21500;-87
2021/03/12 07:35:59;;;;;;;11.45;6.25;;;;;;;7.37;77.05;97976.70;4612097;75;22307;-87
2021/03/12 07:42:02;;;;;;;8.10;4.78;;;;;;;7.54;75.46;97982.84;4564648;76;21124;-86
2021/03/12 07:48:42;;;;;;;10.28;5.45;;;;;;;7.75;75.40;98001.27;4439964;79;22644;-88
2021/03/12 07:55:14;;;;;;;12.37;5.40;;;;;;;7.76;75.07;98005.55;4377402;80;21138;-87
2021/03/12 08:01:55;;;;;;;8.20;4.42;;;;;;;7.86;75.09;98016.50;4308372;80;21291;-87
2021/03/12 08:08:38;;;;;;;9.75;4.97;;;;;;;7.87;74.14;98014.00;4331071;80;21186;-88
2021/03/12 08:15:20;;;;;;;7.80;4.22;;;;;;;7.83;74.13;98018.63;4443262;79;22738;-86
2021/03/12 08:21:32;;;;;;;9.30;4.37;;;;;;;8.18;74.13;98011.23;4300890;81;21218;-90
2021/03/12 08:28:00;;;;;;;8.03;3.10;;;;;;;9.17;72.89;98013.12;4581067;75;23658;-87
2021/03/12 08:34:41;;;;;;;6.03;2.85;;;;;;;9.90;70.97;98037.47;4489924;78;21183;-86
2021/03/12 08:41:12;;;;;;;6.33;2.52;;;;;;;10.18;69.02;98053.85;4485304;78;21286;-88
2021/03/12 08:47:41;;;;;;;6.35;2.72;;;;;;;10.40;66.90;98041.67;4574274;76;23724;-86
2021/03/12 08:53:54;;;;;;;6.10;2.47;;;;;;;10.55;67.08;98060.20;4488192;78;21233;-87
2021/03/12 09:00:08;;;;;;;5.28;2.50;;;;;;;10.18;67.16;98067.53;4505573;76;21639;-86
2021/03/12 09:06:27;;;;;;;5.30;2.70;;;;;;;9.76;66.76;98081.80;4384162;78;28711;-88
2021/03/12 09:12:33;;;;;;;6.42;2.10;;;;;;;9.41;65.73;98101.11;4385935;79;21772;-89
2021/03/12 09:18:39;;;;;;;6.47;2.60;;;;;;;8.85;66.70;98120.07;4384582;79;21233;-88
2021/03/12 09:24:53;;;;;;;6.15;2.15;;;;;;;8.57;66.11;98109.04;4383871;79;21172;-88
2021/03/12 09:30:59;;;;;;;5.80;2.87;;;;;;;8.01;67.50;98133.20;4391092;79;21620;-88
2021/03/12 09:37:05;;;;;;;7.53;2.72;;;;;;;7.63;68.07;98149.44;4385391;79;21189;-88
2021/03/12 09:43:13;;;;;;;3.77;1.13;;;;;;;7.40;69.15;98170.62;4386416;79;21169;-88
2021/03/12 09:49:23;;;;;;;5.90;1.35;;;;;;;7.19;69.59;98179.91;4385378;79;21172;-87
2021/03/12 09:55:25;;;;;;;5.70;1.67;;;;;;;7.04;70.36;98182.83;4384982;79;21223;-88
2021/03/12 10:01:40;;;;;;;3.10;2.12;;;;;;;7.20;71.57;98180.70;4359009;79;21189;-88
2021/03/12 10:07:46;;;;;;;5.30;3.25;;;;;;;7.42;71.58;98190.06;4382020;79;21213;-88
2021/03/12 10:13:50;;;;;;;7.83;4.23;;;;;;;7.43;71.77;98188.93;4384508;79;21180;-89
2021/03/12 10:20:20;;;;;;;8.27;4.30;;;;;;;7.50;72.15;98197.16;4381542;79;21180;-88
2021/03/12 10:26:23;;;;;;;7.85;4.10;;;;;;;7.75;72.05;98203.63;4385522;79;21209;-87
2021/03/12 10:32:26;;;;;;;7.25;4.08;;;;;;;8.21;71.75;98195.06;4386372;79;21166;-89
2021/03/12 10:38:34;;;;;;;9.63;4.03;;;;;;;8.73;71.11;98203.65;4389525;79;21224;-87
2021/03/12 10:45:00;;;;;;;11.70;4.33;;;;;;;9.19;67.69;98199.77;4439819;79;22647;-86
2021/03/12 10:51:05;;;;;;;4.87;2.70;;;;;;;9.32;67.93;98196.88;4376057;80;21292;-87
2021/03/12 10:57:07;;;;;;;4.55;2.80;;;;;;;9.21;68.80;98196.84;4379699;80;22398;-87
2021/03/12 11:03:09;;;;;;;6.20;3.00;;;;;;;9.11;67.63;98187.26;4377623;80;21168;-88
2021/03/12 11:09:13;;;;;;;11.80;3.85;;;;;;;9.07;68.31;98189.97;4386692;79;21177;-88
2021/03/12 11:15:18;;;;;;;7.28;3.15;;;;;;;9.02;67.45;98197.76;4378457;80;21374;-89
2021/03/12 11:21:20;;;;;;;7.40;4.42;;;;;;;8.46;67.57;98264.23;4373801;80;21760;-87
2021/03/12 11:27:22;;;;;;;5.00;2.58;;;;;;;7.52;70.15;98275.19;4381114;80;21221;-87
2021/03/12 11:33:25;;;;;;;2.20;1.15;;;;;;;6.65;71.09;98303.94;4377575;80;21181;-88
2021/03/12 11:39:27;;;;;;;4.25;2.25;;;;;;;5.97;72.22;98280.30;4384349;80;21219;-87
2021/03/12 11:45:29;;;;;;;3.92;2.55;;;;;;;5.51;73.44;98298.98;4386090;80;21196;-88
2021/03/12 11:51:32;;;;;;;4.22;2.60;;;;;;;5.52;74.76;98295.14;4380529;80;21197;-88
2021/03/12 11:57:36;;;;;;;6.83;3.25;;;;;;;6.82;75.01;98304.78;4381749;80;21202;-87
2021/03/12 12:03:38;;;;;;;8.95;4.75;;;;;;;7.24;74.61;98302.08;4368549;80;21838;-88
2021/03/12 12:09:40;;;;;;;7.97;4.70;;;;;;;7.41;74.96;98303.44;4380536;80;21200;-88
2021/03/12 12:15:42;;;;;;;10.00;4.58;;;;;;;7.55;74.44;98292.15;4372433;80;21173;-88
2021/03/12 12:21:44;;;;;;;8.58;4.65;;;;;;;7.82;74.90;98278.64;4378189;80;21192;-88
2021/03/12 12:27:46;;;;;;;8.98;4.35;;;;;;;8.18;74.76;98275.67;4387381;80;21757;-88
2021/03/12 12:33:48;;;;;;;8.50;4.75;;;;;;;8.47;74.59;98278.86;4375223;80;21174;-87
2021/03/12 12:39:49;;;;;;;6.70;4.25;;;;;;;8.73;73.97;98278.69;4381130;80;21224;-88
2021/03/12 12:45:51;;;;;;;7.22;3.65;;;;;;;8.58;73.43;98293.37;4394611;80;21194;-89
2021/03/12 12:51:53;;;;;;;10.20;4.87;;;;;;;8.56;72.80;98288.09;4407778;80;22254;-88
2021/03/12 12:57:54;;;;;;;8.30;4.25;;;;;;;8.53;72.11;98278.73;4402130;80;21644;-87
2021/03/12 13:03:56;;;;;;;8.35;3.92;;;;;;;9.02;72.62;98277.69;4391093;80;21166;-88
2021/03/12 13:09:58;;;;;;;6.85;3.45;;;;;;;9.62;71.34;98277.17;4405543;80;21182;-86
2021/03/12 13:16:01;;;;;;;7.15;3.27;;;;;;;9.55;69.99;98302.55;4382233;80;21194;-87
2021/03/12 13:22:05;;;;;;;4.90;2.58;;;;;;;8.92;69.39;98337.69;4383680;80;21651;-87
2021/03/12 13:28:08;;;;;;;8.98;2.42;;;;;;;8.18;69.35;98345.20;4399533;80;21221;-87
2021/03/12 13:34:10;;;;;;;6.05;2.72;;;;;;;7.59;69.68;98357.00;4401953;80;21224;-87
2021/03/12 13:40:16;;;;;;;13.03;5.90;;;;;;;6.86;70.24;98383.93;4394084;80;21584;-88
2021/03/12 13:46:18;;;;;;;8.90;4.70;;;;;;;6.44;71.11;98356.63;4405179;80;21188;-86
2021/03/12 13:52:20;;;;;;;6.45;3.67;;;;;;;6.44;71.85;98341.09;4402071;80;21237;-86
2021/03/12 13:58:22;;;;;;;13.65;5.42;;;;;;;6.68;72.28;98343.44;4406356;79;21220;-86
2021/03/12 14:04:24;;;;;;;7.78;5.08;;;;;;;6.87;72.34;98356.16;4397490;79;21253;-87
2021/03/12 14:10:26;;;;;;;5.95;2.65;;;;;;;7.08;72.65;98375.55;4405932;80;21218;-87
2021/03/12 14:16:27;;;;;;;6.50;3.92;;;;;;;7.19;71.63;98348.66;4407229;80;21161;-87
2021/03/12 14:22:29;;;;;;;11.20;4.50;;;;;;;7.17;72.08;98343.39;4410021;80;22398;-87
2021/03/12 14:28:31;;;;;;;7.55;4.70;;;;;;;7.43;72.29;98341.98;4409848;80;21504;-87
2021/03/12 14:34:32;;;;;;;12.37;6.58;;;;;;;7.55;72.53;98343.90;4399429;80;21200;-87
2021/03/12 14:40:34;;;;;;;12.28;6.08;;;;;;;7.85;71.81;98334.33;4400254;80;21213;-87
2021/03/12 14:46:36;;;;;;;14.50;6.62;;;;;;;8.12;71.58;98330.34;4388636;80;21184;-87
2021/03/12 14:52:40;;;;;;;14.65;6.47;;;;;;;8.29;71.31;98333.84;4396832;80;21163;-87
2021/03/12 14:58:41;;;;;;;12.20;6.12;;;;;;;8.38;70.20;98326.13;4386653;79;21181;-87
2021/03/12 15:04:44;;;;;;;10.13;5.53;;;;;;;8.41;69.76;98323.25;4389024;79;21208;-89
2021/03/12 15:10:46;;;;;;;12.10;5.12;;;;;;;8.18;69.75;98321.23;4388512;79;21149;-88
2021/03/12 15:16:48;;;;;;;5.45;2.22;;;;;;;8.14;68.50;98316.34;4330469;79;46936;-87
2021/03/12 15:22:51;;;;;;;7.08;3.70;;;;;;;7.85;66.80;98316.05;4249529;81;37455;-87
2021/03/12 15:28:53;;;;;;;6.97;2.70;;;;;;;7.71;67.49;98319.18;4156151;83;58975;-88
2021/03/12 15:34:55;;;;;;;6.87;2.60;;;;;;;7.59;66.71;98327.61;4134420;84;21338;-87
2021/03/12 15:40:59;;;;;;;11.45;3.77;;;;;;;7.40;66.18;98333.20;4171818;81;28807;-88
2021/03/12 15:47:01;;;;;;;17.05;3.90;;;;;;;7.30;66.63;98329.18;4268387;81;21219;-87
2021/03/12 15:53:03;;;;;;;11.60;4.47;;;;;;;7.28;66.79;98336.92;4282952;81;21194;-87
2021/03/12 15:59:06;;;;;;;8.18;4.10;;;;;;;7.23;66.26;98335.11;4269835;81;26234;-87
2021/03/12 16:05:10;;;;;;;10.50;4.62;;;;;;;7.10;66.18;98331.83;4126857;84;21191;-88
2021/03/12 16:11:14;;;;;;;15.25;6.08;;;;;;;6.99;66.27;98339.05;4125089;86;21808;-89
2021/03/12 16:17:16;;;;;;;12.50;5.22;;;;;;;6.81;65.70;98352.98;4120505;84;21770;-85
2021/03/12 16:23:33;;;;;;;11.18;4.53;;;;;;;6.63;66.30;98354.61;4306560;80;23927;-86
2021/03/12 16:29:41;;;;;;;21.20;9.33;;;;;;;6.35;66.22;98359.58;4106995;84;21550;-86
2021/03/12 16:35:44;;;;;;;24.30;10.25;;;;;;;6.20;66.15;98361.84;4172912;83;21233;-86
2021/03/12 16:49:20;;;;;;;19.52;8.80;;;;;;;5.86;65.68;98366.24;4431201;78;22894;-86
2021/03/12 16:55:22;;;;;;;20.72;9.45;;;;;;;5.59;65.84;98375.36;4387494;79;21220;-87
2021/03/12 17:01:24;;;;;;;30.90;11.55;;;;;;;5.47;65.90;98393.70;4385625;79;21212;-86
2021/03/12 17:07:27;;;;;;;18.67;8.13;;;;;;;5.36;65.55;98401.63;4307858;81;21468;-86
2021/03/12 17:13:29;;;;;;;23.67;9.45;;;;;;;5.25;65.23;98403.88;4294250;81;21222;-87
2021/03/12 17:19:31;;;;;;;19.27;8.68;;;;;;;5.18;65.27;98411.88;4300369;81;21696;-86
2021/03/12 17:25:34;;;;;;;32.25;13.55;;;;;;;5.07;65.32;98416.27;4302757;81;21237;-88
2021/03/12 17:31:37;;;;;;;37.33;15.05;;;;;;;4.84;65.89;98414.75;4295870;81;21220;-87
2021/03/12 17:37:39;;;;;;;26.25;13.08;;;;;;;4.68;66.28;98419.41;4298439;81;21219;-87
2021/03/12 17:43:40;;;;;;;28.52;12.98;;;;;;;4.53;66.60;98425.03;4290952;81;21246;-87
2021/03/12 17:49:42;;;;;;;29.85;12.93;;;;;;;4.40;66.96;98432.24;4244369;82;21187;-86
2021/03/12 17:55:43;;;;;;;40.48;14.78;;;;;;;4.31;67.10;98430.23;4235382;82;21243;-87
2021/03/12 18:01:45;;;;;;;34.70;15.53;;;;;;;4.27;67.18;98434.23;4223971;82;21719;-88
2021/03/12 18:07:48;;;;;;;61.18;21.90;;;;;;;4.19;67.22;98431.11;4299677;81;22586;-87
2021/03/12 18:13:50;;;;;;;67.90;23.20;;;;;;;4.05;67.32;98426.66;4269118;81;21173;-86
2021/03/12 18:19:51;;;;;;;39.88;15.43;;;;;;;3.88;67.90;98435.09;4264095;81;21212;-87
2021/03/12 18:25:53;;;;;;;45.28;18.87;;;;;;;3.67;67.83;98441.79;4264400;81;21410;-87
2021/03/12 18:31:55;;;;;;;100.15;37.00;;;;;;;3.56;68.08;98440.69;4106456;82;2125987;-88
2021/03/12 18:38:00;;;;;;;90.40;32.15;;;;;;;3.48;68.50;98451.11;3978888;87;21252;-88
2021/03/12 18:44:00;;;;;;;82.53;31.15;;;;;;;3.44;68.53;98449.64;4066551;86;22281;-86
2021/03/12 18:50:05;;;;;;;53.10;21.35;;;;;;;3.38;68.88;98438.83;4108269;85;21656;-88
2021/03/12 18:56:07;;;;;;;48.60;19.25;;;;;;;3.23;68.90;98442.22;4115169;85;21244;-87
2021/03/12 19:02:09;;;;;;;40.92;15.55;;;;;;;3.14;69.06;98438.30;4095437;85;21232;-87
2021/03/12 19:08:11;;;;;;;38.48;17.67;;;;;;;3.06;69.22;98431.64;4130727;85;21260;-86
2021/03/12 19:14:14;;;;;;;38.38;18.30;;;;;;;2.99;69.86;98436.84;4103018;85;21573;-86
2021/03/12 19:20:17;;;;;;;39.83;16.62;;;;;;;2.93;70.23;98435.47;4098562;85;21280;-87
2021/03/12 19:26:20;;;;;;;48.10;18.35;;;;;;;2.85;70.05;98437.16;4111925;85;21203;-88
2021/03/12 19:32:22;;;;;;;51.37;19.07;;;;;;;2.82;70.10;98436.48;4105456;85;21652;-88
2021/03/12 19:38:24;;;;;;;46.33;19.52;;;;;;;2.76;70.09;98441.09;4113003;85;21184;-87
2021/03/12 19:44:26;;;;;;;54.25;20.68;;;;;;;2.68;70.32;98428.47;4113182;85;21196;-88
2021/03/12 19:50:28;;;;;;;49.27;21.02;;;;;;;2.60;70.44;98430.16;4119470;85;21349;-88
2021/03/12 19:56:30;;;;;;;52.75;20.30;;;;;;;2.56;70.53;98427.92;4107632;85;21205;-88
2021/03/12 20:02:32;;;;;;;34.58;14.07;;;;;;;2.53;70.60;98433.99;4109593;85;21260;-86
2021/03/12 20:08:34;;;;;;;34.88;12.82;;;;;;;2.56;70.50;98427.12;4122103;85;21246;-87
2021/03/12 20:14:36;;;;;;;34.05;13.95;;;;;;;2.66;70.63;98437.50;4122342;85;21244;-87
2021/03/12 20:20:40;;;;;;;33.73;13.62;;;;;;;2.73;70.63;98442.56;4116146;85;21673;-86
2021/03/12 20:26:43;;;;;;;34.83;12.95;;;;;;;2.68;70.39;98442.78;4117240;85;21786;-86
2021/03/12 20:32:44;;;;;;;34.18;13.50;;;;;;;2.68;69.98;98440.63;4114192;85;21837;-89
2021/03/12 20:38:46;;;;;;;58.45;18.95;;;;;;;2.79;70.07;98431.75;4110806;85;21246;-88
2021/03/12 20:44:48;;;;;;;67.00;22.50;;;;;;;2.69;69.70;98434.12;4114182;85;21379;-87
2021/03/12 20:50:49;;;;;;;50.35;19.17;;;;;;;2.53;69.69;98433.20;4109121;85;21247;-86
2021/03/12 20:56:54;;;;;;;53.78;18.70;;;;;;;2.40;70.68;98442.39;4116028;85;21816;-87
2021/03/12 21:02:55;;;;;;;38.02;14.78;;;;;;;2.33;70.27;98430.02;4120255;85;21675;-87
2021/03/12 21:08:56;;;;;;;32.90;13.22;;;;;;;2.35;70.18;98438.00;4114180;85;21204;-86
2021/03/12 21:15:03;;;;;;;37.63;15.65;;;;;;;2.42;70.20;98430.15;4117568;85;21192;-88
2021/03/12 21:21:07;;;;;;;31.07;12.50;;;;;;;2.32;70.32;98430.56;4116969;85;21188;-87
2021/03/12 21:27:09;;;;;;;31.05;11.40;;;;;;;2.21;70.50;98427.29;4110088;85;21710;-86
2021/03/12 21:33:12;;;;;;;24.98;9.28;;;;;;;2.32;70.52;98429.21;4112158;85;21228;-86
2021/03/12 21:39:13;;;;;;;21.07;8.35;;;;;;;2.59;70.16;98424.54;4114999;85;21246;-87
2021/03/12 21:45:15;;;;;;;24.18;9.75;;;;;;;2.78;69.81;98420.73;4054812;87;21290;-88
2021/03/12 21:51:16;;;;;;;31.23;10.32;;;;;;;2.93;69.37;98418.69;4112423;85;21242;-86
2021/03/12 21:57:20;;;;;;;24.40;9.88;;;;;;;2.92;69.22;98411.72;4053097;86;21609;-87
2021/03/12 22:03:22;;;;;;;27.05;10.05;;;;;;;2.82;69.35;98411.36;4052111;86;21609;-86
2021/03/12 22:09:23;;;;;;;23.57;8.65;;;;;;;2.67;69.58;98399.88;4055906;86;21204;-86
2021/03/12 22:15:27;;;;;;;24.35;8.80;;;;;;;2.41;69.85;98397.48;4055399;86;21275;-87
2021/03/12 22:21:29;;;;;;;16.70;6.80;;;;;;;2.40;69.79;98389.72;4049512;86;21370;-87
2021/03/12 22:27:32;;;;;;;17.90;7.42;;;;;;;2.50;69.51;98391.44;4093848;85;21219;-87
2021/03/12 22:33:34;;;;;;;19.98;7.12;;;;;;;2.58;69.42;98391.90;4104414;85;21357;-86
2021/03/12 22:39:36;;;;;;;20.80;7.25;;;;;;;2.61;69.32;98385.02;4060226;87;21963;-86
2021/03/12 22:45:37;;;;;;;19.82;7.25;;;;;;;2.60;69.21;98388.27;4028319;87;21277;-87
2021/03/12 22:51:39;;;;;;;25.55;10.05;;;;;;;2.37;69.09;98381.73;4043041;87;21367;-88
2021/03/12 22:57:41;;;;;;;25.20;9.35;;;;;;;2.25;69.24;98389.83;4038253;87;21345;-87
2021/03/12 23:03:42;;;;;;;19.98;8.18;;;;;;;2.36;69.05;98388.27;4039830;87;21680;-86
2021/03/12 23:09:44;;;;;;;25.27;10.32;;;;;;;2.37;69.09;98381.73;4108386;85;21705;-86
2021/03/12 23:15:47;;;;;;;18.37;7.90;;;;;;;2.27;69.11;98384.09;4028780;87;21380;-87
2021/03/12 23:21:49;;;;;;;18.98;6.75;;;;;;;2.25;69.15;98383.63;4023206;87;21724;-86
2021/03/12 23:27:51;;;;;;;19.80;8.55;;;;;;;2.58;68.06;98371.64;4056593;86;21737;-87
2021/03/12 23:33:55;;;;;;;21.85;7.45;;;;;;;2.85;67.60;98374.98;4049048;86;21236;-88
2021/03/12 23:39:56;;;;;;;20.02;7.28;;;;;;;2.73;68.31;98379.05;4094865;85;21665;-87
2021/03/12 23:45:58;;;;;;;15.60;7.22;;;;;;;2.82;67.42;98374.88;4096897;85;21237;-88
2021/03/12 23:51:59;;;;;;;12.82;5.53;;;;;;;2.93;67.32;98371.38;4096017;85;21265;-88
2021/03/12 23:58:01;;;;;;;18.82;5.70;;;;;;;2.93;67.21;98370.58;4086534;86;21328;-88
